首页
METAR-TAF:

METAR-TAF

机场 :

南安普敦機場

南安普敦, 英格兰

纬度: 50-54N, 经度: 001-24W, 海拔: 9米

当前天气观测

该预报发布于32分钟前的16:20 UTC
静风
温度 7°C
湿度 87%
气压 1022 hPa
能见度10公里或以上
多云层高于2000英尺

METAR: EGHI 241620Z 00000KT 9999 BKN020 07/05 Q1022

时间: 16:52 (16:52 UTC)

预报

该预报发布于2小时和53分钟前的13:59 UTC
预报有效从24日的 15点(UTC)到 24日的 23点(UTC)
风速3节,风向多变
能见度10公里或以上
少量云层高于1200英尺
多云层高于2000英尺
短暂存在
从 24日的 15点(UTC)到 24日的 23点(UTC)
能見度: 8000
多云层高于1200英尺
几率 30% :
短暂存在
从 24日的 15点(UTC)到 24日的 23点(UTC)
能見度: 4500
多云层高于800英尺
轻雾

TAF: EGHI 241359Z 2415/2423 VRB03KT 9999 FEW012 BKN020 TEMPO 2415/2423 8000 BKN012 PROB30 TEMPO 2415/2423 4500 BR BKN008

超过4000个机场的气象观测和天气预报(METAR&TAF报告)。

可查询的气象台以黄色和红色小点在地图上表示。

将鼠标移到小点上方,可查看气象台名称。

然后点击查看天气观测和预报。

如需切换地图:点击带黑十字的绿色按钮放大地图;点击带横线的绿色按钮缩小地图;或者点击绿色箭头查看邻近地区的地图。


METAR-TAF: